createdAt,value
2022-12-11T00:02:18.394Z,19.75
2022-12-11T00:04:48.061Z,20.90
2022-12-11T00:07:20.280Z,20.15
2022-12-11T00:09:49.875Z,20.60
2022-12-11T00:12:19.980Z,20.42
2022-12-11T00:14:49.604Z,19.83
2022-12-11T00:17:19.168Z,20.65
2022-12-11T00:19:48.753Z,20.33
2022-12-11T00:22:20.889Z,20.63
2022-12-11T00:24:50.726Z,21.42
2022-12-11T00:27:20.267Z,21.35
2022-12-11T00:29:50.363Z,22.45
2022-12-11T00:32:19.963Z,22.63
2022-12-11T00:34:49.577Z,22.02
2022-12-11T00:37:21.744Z,21.58
2022-12-11T00:39:51.503Z,23.65
2022-12-11T00:42:21.067Z,23.17
2022-12-11T00:44:50.967Z,23.08
2022-12-11T00:47:20.546Z,22.80
2022-12-11T00:49:50.399Z,23.45
2022-12-11T00:52:22.697Z,23.77
2022-12-11T00:54:52.275Z,24.55
2022-12-11T00:57:21.858Z,25.58
2022-12-11T00:59:51.401Z,24.35
2022-12-11T01:02:21.038Z,25.05
2022-12-11T01:04:50.593Z,24.75
2022-12-11T01:07:22.747Z,23.35
2022-12-11T01:10:04.749Z,26.10
2022-12-11T01:12:34.364Z,27.08
2022-12-11T01:15:04.197Z,29.23
2022-12-11T01:17:33.836Z,26.23
2022-12-11T01:20:04.293Z,26.60
2022-12-11T01:22:36.481Z,27.30
2022-12-11T01:25:06.395Z,27.35
2022-12-11T01:27:36.098Z,25.45
2022-12-11T01:30:07.473Z,27.02
2022-12-11T01:32:37.615Z,26.65
2022-12-11T01:35:08.359Z,27.75
2022-12-11T01:37:40.776Z,26.70
2022-12-11T01:40:12.232Z,27.13
2022-12-11T01:42:41.799Z,27.80
2022-12-11T01:45:36.529Z,27.83
2022-12-11T01:48:09.515Z,24.98
2022-12-11T01:50:42.537Z,27.65
2022-12-11T01:53:18.220Z,27.65
2022-12-11T01:55:49.341Z,28.73
2022-12-11T01:58:19.351Z,26.55
2022-12-11T02:00:49.192Z,27.65
2022-12-11T02:03:19.364Z,28.05
2022-12-11T02:05:48.977Z,26.58
2022-12-11T02:08:21.465Z,27.88
2022-12-11T02:10:59.275Z,27.75
2022-12-11T02:13:34.273Z,27.40
2022-12-11T02:16:10.799Z,27.15
2022-12-11T02:18:47.050Z,27.85
2022-12-11T02:21:21.939Z,27.88
2022-12-11T02:24:06.258Z,27.95
2022-12-11T02:26:58.059Z,26.85
2022-12-11T02:29:36.406Z,26.23
2022-12-11T02:32:08.858Z,27.95
2022-12-11T02:34:42.920Z,26.90
2022-12-11T02:37:17.151Z,28.80
2022-12-11T02:42:17.055Z,24.83
2022-12-11T02:44:49.631Z,28.00
2022-12-11T02:47:20.310Z,27.00
2022-12-11T02:49:52.523Z,28.33
2022-12-11T02:52:24.575Z,28.38
2022-12-11T02:54:55.374Z,27.88
2022-12-11T02:57:27.041Z,28.10
2022-12-11T02:59:59.191Z,27.00
2022-12-11T03:02:28.871Z,28.02
2022-12-11T03:04:59.491Z,28.73
2022-12-11T03:07:31.986Z,24.08
2022-12-11T03:10:01.651Z,25.33
2022-12-11T03:12:33.307Z,23.98
2022-12-11T03:15:10.078Z,23.63
2022-12-11T03:17:45.989Z,23.60
2022-12-11T03:20:21.443Z,21.17
2022-12-11T03:22:54.428Z,21.27
2022-12-11T03:25:25.923Z,22.50
2022-12-11T03:28:01.200Z,20.77
2022-12-11T03:30:34.194Z,22.02
2022-12-11T03:33:06.963Z,22.38
2022-12-11T03:35:38.782Z,21.42
2022-12-11T03:38:12.806Z,21.63
2022-12-11T03:40:43.412Z,21.23
2022-12-11T03:43:14.339Z,20.50
2022-12-11T03:45:47.837Z,19.70
2022-12-11T03:48:18.219Z,21.23
2022-12-11T03:50:49.092Z,20.83
2022-12-11T03:53:19.474Z,19.30
2022-12-11T03:55:49.267Z,19.40
2022-12-11T03:58:18.811Z,19.10
2022-12-11T04:00:51.047Z,20.15
2022-12-11T04:03:20.655Z,20.52
2022-12-11T04:05:51.577Z,20.58
2022-12-11T04:08:23.388Z,18.67
2022-12-11T04:11:13.860Z,19.45
2022-12-11T04:13:44.399Z,18.20
2022-12-11T04:16:14.062Z,18.38
2022-12-11T04:18:56.108Z,17.83
2022-12-11T04:21:39.817Z,18.73
2022-12-11T04:24:18.876Z,17.40
2022-12-11T04:26:49.655Z,17.27
2022-12-11T04:29:19.199Z,17.60
2022-12-11T04:31:51.346Z,17.45
2022-12-11T04:34:20.898Z,17.58
2022-12-11T04:36:50.507Z,17.17
2022-12-11T04:39:20.177Z,17.60
2022-12-11T04:41:49.751Z,19.33
2022-12-11T04:44:19.304Z,16.27
2022-12-11T04:46:51.472Z,18.02
2022-12-11T04:49:21.070Z,19.10
2022-12-11T04:51:50.617Z,18.40
2022-12-11T04:54:20.185Z,19.90
2022-12-11T04:56:49.790Z,17.77
2022-12-11T04:59:19.380Z,18.23
2022-12-11T05:01:51.609Z,18.50
2022-12-11T05:04:21.235Z,19.77
2022-12-11T05:06:52.054Z,18.67
2022-12-11T05:09:21.701Z,18.95
2022-12-11T05:11:51.757Z,20.20
2022-12-11T05:14:21.553Z,18.27
2022-12-11T05:16:53.691Z,19.10
2022-12-11T05:19:23.244Z,20.98
2022-12-11T05:21:52.856Z,20.52
2022-12-11T05:24:22.501Z,18.90
2022-12-11T05:26:52.020Z,21.23
2022-12-11T05:29:21.587Z,19.58
2022-12-11T05:31:53.700Z,21.38
2022-12-11T05:34:23.276Z,19.48
2022-12-11T05:36:52.816Z,20.73
2022-12-11T05:39:22.523Z,20.08
2022-12-11T05:41:52.039Z,19.25
2022-12-11T05:44:21.602Z,21.33
2022-12-11T05:46:53.770Z,18.50
2022-12-11T05:49:30.517Z,19.95
2022-12-11T05:52:00.507Z,19.67
2022-12-11T05:54:30.100Z,20.20
2022-12-11T05:56:59.627Z,19.98
2022-12-11T05:59:29.182Z,19.95
2022-12-11T06:02:01.564Z,19.45
2022-12-11T06:04:31.232Z,19.88
2022-12-11T06:07:00.811Z,19.70
2022-12-11T06:09:30.376Z,21.20
2022-12-11T06:11:59.932Z,21.17
2022-12-11T06:14:29.530Z,18.45
2022-12-11T06:17:01.675Z,22.38
2022-12-11T06:19:36.590Z,19.63
2022-12-11T06:22:06.627Z,19.40
2022-12-11T06:24:36.263Z,18.75
2022-12-11T06:27:05.787Z,20.05
2022-12-11T06:29:35.768Z,18.25
2022-12-11T06:32:08.113Z,18.02
2022-12-11T06:34:37.685Z,18.88
2022-12-11T06:37:07.268Z,19.15
2022-12-11T06:39:36.846Z,18.05
2022-12-11T06:42:06.720Z,17.55
2022-12-11T06:44:36.278Z,18.20
2022-12-11T06:47:08.947Z,18.42
2022-12-11T06:49:38.506Z,17.58
2022-12-11T06:52:11.518Z,18.17
2022-12-11T06:54:43.256Z,17.75
2022-12-11T06:57:12.925Z,17.52
2022-12-11T06:59:42.596Z,17.25
2022-12-11T07:02:16.296Z,18.00
2022-12-11T07:04:49.272Z,18.95
2022-12-11T07:07:21.453Z,19.45
2022-12-11T07:09:51.045Z,19.60
2022-12-11T07:12:21.151Z,18.45
2022-12-11T07:14:50.693Z,17.65
2022-12-11T07:17:22.806Z,18.50
2022-12-11T07:19:52.389Z,18.35
2022-12-11T07:22:21.930Z,17.90
2022-12-11T07:24:51.471Z,17.10
2022-12-11T07:27:21.028Z,17.40
2022-12-11T07:29:50.655Z,18.83
2022-12-11T07:32:22.848Z,18.33
2022-12-11T07:34:52.731Z,18.48
2022-12-11T07:37:22.264Z,19.10
2022-12-11T07:39:51.793Z,17.85
2022-12-11T07:42:21.330Z,18.95
2022-12-11T07:44:51.307Z,17.38
2022-12-11T07:47:23.461Z,18.27
2022-12-11T07:49:53.041Z,18.02
2022-12-11T07:52:22.805Z,17.88
2022-12-11T07:54:52.440Z,17.98
2022-12-11T07:57:22.016Z,17.80
2022-12-11T07:59:51.590Z,20.30
2022-12-11T08:02:23.816Z,20.02
2022-12-11T08:04:53.427Z,19.45
2022-12-11T08:07:22.938Z,19.45
2022-12-11T08:09:52.508Z,19.20
2022-12-11T08:12:22.307Z,18.27
2022-12-11T08:14:51.891Z,17.98
2022-12-11T08:17:29.105Z,17.85
2022-12-11T08:19:59.738Z,18.98
2022-12-11T08:22:29.407Z,17.83
2022-12-11T08:24:58.939Z,18.15
2022-12-11T08:27:28.452Z,18.73
2022-12-11T08:29:58.008Z,19.40
2022-12-11T08:32:30.107Z,18.40
2022-12-11T08:34:59.657Z,24.27
2022-12-11T08:37:29.647Z,18.52
2022-12-11T08:39:59.202Z,19.55
2022-12-11T08:42:28.826Z,18.90
2022-12-11T08:44:58.373Z,18.08
2022-12-11T08:47:30.819Z,19.23
2022-12-11T08:50:00.358Z,18.25
2022-12-11T08:52:31.396Z,19.52
2022-12-11T08:55:01.010Z,18.35
2022-12-11T08:57:30.750Z,20.13
2022-12-11T09:00:00.463Z,19.10
2022-12-11T09:02:32.610Z,19.23
2022-12-11T09:05:02.190Z,18.55
2022-12-11T09:07:31.722Z,18.55
2022-12-11T09:10:01.288Z,20.27
2022-12-11T09:12:31.239Z,19.58
2022-12-11T09:15:01.080Z,18.13
2022-12-11T09:17:33.205Z,18.60
2022-12-11T09:20:02.772Z,18.10
2022-12-11T09:22:32.304Z,16.83
2022-12-11T09:25:01.981Z,16.75
2022-12-11T09:27:31.901Z,17.08
2022-12-11T09:30:01.488Z,17.20
2022-12-11T09:32:33.603Z,17.23
2022-12-11T09:35:03.147Z,16.70
2022-12-11T09:37:32.676Z,18.00
2022-12-11T09:40:07.261Z,16.73
2022-12-11T09:42:48.591Z,15.88
2022-12-11T09:45:19.101Z,19.65
2022-12-11T09:47:53.001Z,17.50
2022-12-11T09:50:25.657Z,17.33
2022-12-11T09:53:02.886Z,17.67
2022-12-11T09:55:36.929Z,16.55
2022-12-11T09:58:09.723Z,17.40
2022-12-11T10:00:43.077Z,17.23
2022-12-11T10:03:40.892Z,17.07
2022-12-11T10:06:17.632Z,17.88
2022-12-11T10:08:54.412Z,17.40
2022-12-11T10:11:35.663Z,18.00
2022-12-11T10:14:09.448Z,17.88
2022-12-11T10:16:42.296Z,16.88
2022-12-11T10:19:22.082Z,18.27
2022-12-11T10:21:52.927Z,18.08
2022-12-11T10:25:05.772Z,18.58
2022-12-11T10:27:19.377Z,18.73
2022-12-11T10:29:49.073Z,18.50
2022-12-11T10:32:25.725Z,18.08
2022-12-11T10:35:00.702Z,18.98
2022-12-11T10:37:30.438Z,17.80
2022-12-11T10:39:59.983Z,20.25
2022-12-11T10:42:29.663Z,18.27
2022-12-11T10:45:01.252Z,17.45
2022-12-11T10:47:34.022Z,19.05
2022-12-11T10:50:07.184Z,18.23
2022-12-11T10:52:40.747Z,18.50
2022-12-11T10:55:22.045Z,21.42
2022-12-11T10:57:58.396Z,20.15
2022-12-11T11:00:37.678Z,20.65
2022-12-11T11:03:08.453Z,20.27
2022-12-11T11:05:46.244Z,19.20
2022-12-11T11:08:22.611Z,19.52
2022-12-11T11:10:56.685Z,20.35
2022-12-11T11:13:27.812Z,19.85
2022-12-11T11:16:03.208Z,20.67
2022-12-11T11:18:33.588Z,19.13
2022-12-11T11:21:06.389Z,19.48
2022-12-11T11:23:42.726Z,20.05
2022-12-11T11:26:14.705Z,19.63
2022-12-11T11:28:49.980Z,19.27
2022-12-11T11:31:20.994Z,19.80
2022-12-11T11:33:57.977Z,19.13
2022-12-11T11:36:31.756Z,19.63
2022-12-11T11:39:13.520Z,20.52
2022-12-11T11:41:49.824Z,19.42
2022-12-11T11:44:23.018Z,21.55
2022-12-11T11:46:58.726Z,21.33
2022-12-11T11:49:47.544Z,19.77
2022-12-11T11:52:25.696Z,21.52
2022-12-11T11:55:00.878Z,21.80
2022-12-11T11:57:37.885Z,19.77
2022-12-11T12:00:10.845Z,21.33
2022-12-11T12:02:44.140Z,24.40
2022-12-11T12:05:15.431Z,19.95
2022-12-11T12:07:52.944Z,17.92
2022-12-11T12:10:26.781Z,18.67
2022-12-11T12:13:01.378Z,20.60
2022-12-11T12:15:38.545Z,20.33
2022-12-11T12:18:14.875Z,18.55
2022-12-11T12:20:51.199Z,20.08
2022-12-11T12:23:36.655Z,19.27
2022-12-11T12:26:11.933Z,18.02
2022-12-11T12:28:45.120Z,21.33
2022-12-11T12:31:24.201Z,20.65
2022-12-11T12:33:58.899Z,21.23
2022-12-11T12:36:31.154Z,21.50
2022-12-11T12:39:06.108Z,18.95
2022-12-11T12:41:42.756Z,18.25
2022-12-11T12:44:20.040Z,19.20
2022-12-11T12:46:54.703Z,19.85
2022-12-11T12:49:33.942Z,20.60
2022-12-11T12:52:04.315Z,21.88
2022-12-11T12:54:36.867Z,20.63
2022-12-11T12:57:07.314Z,20.33
2022-12-11T12:59:36.862Z,20.98
2022-12-11T13:02:08.916Z,21.63
2022-12-11T13:04:56.865Z,20.63
2022-12-11T13:07:30.386Z,20.10
2022-12-11T13:10:07.039Z,21.35
2022-12-11T13:12:47.694Z,19.88
2022-12-11T13:15:33.344Z,19.55
2022-12-11T13:18:04.343Z,20.35
2022-12-11T13:20:35.486Z,20.65
2022-12-11T13:23:18.609Z,18.52
2022-12-11T13:25:53.337Z,19.45
2022-12-11T13:28:31.620Z,19.85
2022-12-11T13:31:10.272Z,20.08
2022-12-11T13:33:46.688Z,19.63
2022-12-11T13:36:28.092Z,20.50
2022-12-11T13:39:00.666Z,19.73
2022-12-11T13:41:33.289Z,19.50
2022-12-11T13:44:02.945Z,19.45
2022-12-11T13:46:35.563Z,19.45
2022-12-11T13:49:07.585Z,17.83
2022-12-11T13:51:38.057Z,19.80
2022-12-11T13:54:16.943Z,18.20
2022-12-11T13:56:59.797Z,20.23
2022-12-11T13:59:32.805Z,18.83
2022-12-11T14:02:06.331Z,18.08
2022-12-11T14:04:37.147Z,19.05
2022-12-11T14:07:09.844Z,18.33
2022-12-11T14:09:42.900Z,18.63
2022-12-11T14:12:21.773Z,19.65
2022-12-11T14:14:54.075Z,18.98
2022-12-11T14:17:27.518Z,18.17
2022-12-11T14:19:58.276Z,17.27
2022-12-11T14:22:29.776Z,18.17
2022-12-11T14:25:02.813Z,16.73
2022-12-11T14:27:34.982Z,19.45
2022-12-11T14:30:13.784Z,18.23
2022-12-11T14:32:46.125Z,19.17
2022-12-11T14:35:27.613Z,17.75
2022-12-11T14:37:57.508Z,18.13
2022-12-11T14:40:31.734Z,17.85
2022-12-11T14:43:06.368Z,18.55
2022-12-11T14:45:37.708Z,18.42
2022-12-11T14:48:11.568Z,19.25
2022-12-11T14:50:43.794Z,18.17
2022-12-11T14:53:17.233Z,17.92
2022-12-11T14:55:47.005Z,18.38
2022-12-11T14:58:21.988Z,19.30
2022-12-11T15:01:00.748Z,17.55
2022-12-11T15:03:34.734Z,16.35
2022-12-11T15:06:05.366Z,16.33
2022-12-11T15:08:37.001Z,15.93
2022-12-11T15:11:09.122Z,16.13
2022-12-11T15:13:43.093Z,15.77
2022-12-11T15:16:17.472Z,17.25
2022-12-11T15:18:50.752Z,16.52
2022-12-11T15:21:21.056Z,15.37
2022-12-11T15:23:55.038Z,14.25
2022-12-11T15:26:36.372Z,15.07
2022-12-11T15:29:22.582Z,14.73
2022-12-11T15:32:02.169Z,15.93
2022-12-11T15:34:36.334Z,18.50
2022-12-11T15:39:35.219Z,14.63
2022-12-11T15:42:09.819Z,16.88
2022-12-11T15:44:43.985Z,16.05
2022-12-11T15:49:45.991Z,15.60
2022-12-11T15:52:15.607Z,15.40
2022-12-11T15:54:45.166Z,15.05
2022-12-11T15:57:19.387Z,15.50
2022-12-11T16:02:21.554Z,15.23
2022-12-11T16:04:51.140Z,16.15
2022-12-11T16:07:22.269Z,16.27
2022-12-11T16:09:52.313Z,14.98
2022-12-11T16:12:21.931Z,15.77
2022-12-11T16:14:54.074Z,15.90
2022-12-11T16:17:23.899Z,15.75
2022-12-11T16:19:54.185Z,15.43
2022-12-11T16:22:23.759Z,15.60
2022-12-11T16:24:56.100Z,16.40
2022-12-11T16:27:26.412Z,16.10
2022-12-11T16:29:58.862Z,17.00
2022-12-11T16:32:28.476Z,17.13
2022-12-11T16:35:01.211Z,17.85
2022-12-11T16:37:31.056Z,17.45
2022-12-11T16:40:00.780Z,18.73
2022-12-11T16:42:30.490Z,18.30
2022-12-11T16:45:08.576Z,18.40
2022-12-11T16:47:38.188Z,18.17
2022-12-11T16:50:08.564Z,17.42
2022-12-11T16:52:38.363Z,18.45
2022-12-11T16:55:09.260Z,17.17
2022-12-11T16:57:39.239Z,17.52
2022-12-11T17:00:14.223Z,19.27
2022-12-11T17:02:44.191Z,17.77
2022-12-11T17:05:13.999Z,17.73
2022-12-11T17:07:43.817Z,18.30
2022-12-11T17:10:13.524Z,17.08
2022-12-11T17:12:43.094Z,17.42
2022-12-11T17:15:15.429Z,17.40
2022-12-11T17:17:44.991Z,19.23
2022-12-11T17:20:14.751Z,17.85
2022-12-11T17:22:46.024Z,18.52
2022-12-11T17:25:19.299Z,19.42
2022-12-11T17:27:48.868Z,18.70
2022-12-11T17:30:21.159Z,17.98
2022-12-11T17:32:51.181Z,19.10
2022-12-11T17:35:21.020Z,19.13
2022-12-11T17:37:50.543Z,18.17
2022-12-11T17:40:22.616Z,18.60
2022-12-11T17:42:52.177Z,18.85
2022-12-11T17:45:24.336Z,17.88
2022-12-11T17:47:53.848Z,19.00
2022-12-11T17:50:23.388Z,19.27
2022-12-11T17:52:52.951Z,20.02
2022-12-11T17:55:22.578Z,19.60
2022-12-11T17:57:52.249Z,19.33
2022-12-11T18:00:27.458Z,17.83
2022-12-11T18:03:01.153Z,19.15
2022-12-11T18:05:31.413Z,19.98
2022-12-11T18:08:01.096Z,18.67
2022-12-11T18:10:30.741Z,19.15
2022-12-11T18:13:01.006Z,19.30
2022-12-11T18:15:33.194Z,19.10
2022-12-11T18:18:02.870Z,19.90
2022-12-11T18:20:33.776Z,20.13
2022-12-11T18:23:04.276Z,19.33
2022-12-11T18:25:34.116Z,19.38
2022-12-11T18:28:03.727Z,17.73
2022-12-11T18:30:35.989Z,19.83
2022-12-11T18:33:05.612Z,18.77
2022-12-11T18:35:35.191Z,18.83
2022-12-11T18:38:04.864Z,19.38
2022-12-11T18:40:34.436Z,18.88
2022-12-11T18:43:03.963Z,19.23
2022-12-11T18:45:36.296Z,18.15
2022-12-11T18:48:06.436Z,19.50
2022-12-11T18:50:36.104Z,19.17
2022-12-11T18:53:05.841Z,19.05
2022-12-11T18:55:35.831Z,18.45
2022-12-11T18:58:05.377Z,18.40
2022-12-11T19:00:37.569Z,19.25
2022-12-11T19:03:07.176Z,19.13
2022-12-11T19:05:40.331Z,20.25
2022-12-11T19:08:10.006Z,22.67
2022-12-11T19:10:44.000Z,19.38
2022-12-11T19:13:13.881Z,18.70
2022-12-11T19:15:46.614Z,19.98
2022-12-11T19:18:16.224Z,18.85
2022-12-11T19:20:50.627Z,19.17
2022-12-11T19:23:23.449Z,19.77
2022-12-11T19:25:53.274Z,19.35
2022-12-11T19:28:22.846Z,21.05
2022-12-11T19:30:55.033Z,19.45
2022-12-11T19:33:24.654Z,19.33
2022-12-11T19:36:03.467Z,19.88
2022-12-11T19:38:33.007Z,20.35
2022-12-11T19:41:02.753Z,19.58
2022-12-11T19:43:32.336Z,20.15
2022-12-11T19:46:05.551Z,19.52
2022-12-11T19:48:37.466Z,19.27
2022-12-11T19:51:08.005Z,20.10
2022-12-11T19:53:38.439Z,19.98
2022-12-11T19:56:08.841Z,21.00
2022-12-11T19:58:38.551Z,20.67
2022-12-11T20:01:11.243Z,20.33
2022-12-11T20:03:41.406Z,20.80
2022-12-11T20:06:11.272Z,18.90
2022-12-11T20:08:45.718Z,20.08
2022-12-11T20:11:18.758Z,20.13
2022-12-11T20:13:48.999Z,19.40
2022-12-11T20:16:39.084Z,18.67
2022-12-11T20:19:11.531Z,19.20
2022-12-11T20:21:41.100Z,19.67
2022-12-11T20:24:11.508Z,19.80
2022-12-11T20:26:41.361Z,19.90
2022-12-11T20:29:10.927Z,19.65
2022-12-11T20:31:44.573Z,20.27
2022-12-11T20:34:14.588Z,19.48
2022-12-11T20:36:44.301Z,20.40
2022-12-11T20:39:15.101Z,21.38
2022-12-11T20:41:44.752Z,20.73
2022-12-11T20:44:14.302Z,21.52
2022-12-11T20:46:46.456Z,20.80
2022-12-11T20:49:16.571Z,21.25
2022-12-11T20:51:46.135Z,20.98
2022-12-11T20:54:15.694Z,20.20
2022-12-11T20:56:45.252Z,21.13
2022-12-11T20:59:14.853Z,20.02
2022-12-11T21:01:47.031Z,19.60
2022-12-11T21:04:16.640Z,19.58
2022-12-11T21:06:46.190Z,20.02
2022-12-11T21:09:18.124Z,18.63
2022-12-11T21:11:48.053Z,18.92
2022-12-11T21:14:18.607Z,19.65
2022-12-11T21:16:50.998Z,19.55
2022-12-11T21:19:21.241Z,19.15
2022-12-11T21:21:51.056Z,19.27
2022-12-11T21:24:26.408Z,20.10
2022-12-11T21:26:57.668Z,19.10
2022-12-11T21:29:29.388Z,18.50
2022-12-11T21:32:01.688Z,19.77
2022-12-11T21:34:31.300Z,18.83
2022-12-11T21:37:00.862Z,18.73
2022-12-11T21:39:36.076Z,19.30
2022-12-11T21:42:08.724Z,19.50
2022-12-11T21:45:31.351Z,19.20
2022-12-11T21:47:30.563Z,18.63
2022-12-11T21:50:00.174Z,18.58
2022-12-11T21:52:30.019Z,19.40
2022-12-11T21:54:59.654Z,18.02
2022-12-11T21:57:30.148Z,18.35
2022-12-11T21:59:59.764Z,18.88
2022-12-11T22:02:36.012Z,19.10
2022-12-11T22:05:10.522Z,19.45
2022-12-11T22:07:40.493Z,20.20
2022-12-11T22:10:11.434Z,19.58
2022-12-11T22:12:41.091Z,18.33
2022-12-11T22:15:12.220Z,18.55
2022-12-11T22:17:44.562Z,17.25
2022-12-11T22:20:14.981Z,18.52
2022-12-11T22:22:44.797Z,20.02
2022-12-11T22:25:14.630Z,19.38
2022-12-11T22:27:44.428Z,19.60
2022-12-11T22:30:15.305Z,18.65
2022-12-11T22:32:47.548Z,18.38
2022-12-11T22:35:17.112Z,19.48
2022-12-11T22:37:46.691Z,18.60
2022-12-11T22:40:16.604Z,18.55
2022-12-11T22:42:46.346Z,19.38
2022-12-11T22:45:16.210Z,19.38
2022-12-11T22:47:48.490Z,18.98
2022-12-11T22:50:19.160Z,18.55
2022-12-11T22:52:48.832Z,18.15
2022-12-11T22:55:18.463Z,19.00
2022-12-11T22:57:48.127Z,18.80
2022-12-11T23:00:18.828Z,18.33
2022-12-11T23:02:51.097Z,17.95
2022-12-11T23:05:20.959Z,18.40
2022-12-11T23:07:50.630Z,18.30
2022-12-11T23:10:20.376Z,18.45
2022-12-11T23:12:49.985Z,18.10
2022-12-11T23:15:19.600Z,17.75
2022-12-11T23:17:51.767Z,19.45
2022-12-11T23:20:21.959Z,18.65
2022-12-11T23:22:51.524Z,17.58
2022-12-11T23:25:21.411Z,17.63
2022-12-11T23:27:51.138Z,17.58
2022-12-11T23:30:20.713Z,16.95
2022-12-11T23:32:52.881Z,17.45
2022-12-11T23:35:22.524Z,17.55
2022-12-11T23:37:52.100Z,19.13
2022-12-11T23:40:21.837Z,18.08
2022-12-11T23:42:51.598Z,17.90
2022-12-11T23:45:21.261Z,17.50
2022-12-11T23:47:53.852Z,17.92
2022-12-11T23:50:23.853Z,18.48
2022-12-11T23:52:53.458Z,17.65
2022-12-11T23:55:25.390Z,18.50
2022-12-11T23:57:55.007Z,18.05
